createdAt,value
2022-09-13T10:58:57.762Z,99.99
2022-09-13T10:59:57.672Z,99.99
2022-09-13T11:00:57.724Z,99.99
2022-09-13T11:01:57.645Z,99.99
2022-09-13T11:02:57.620Z,99.99
2022-09-13T11:03:57.651Z,99.99
2022-09-13T11:04:57.606Z,99.99
2022-09-13T11:05:57.593Z,99.99
2022-09-13T11:07:01.670Z,99.99
2022-09-13T11:07:57.560Z,99.99
2022-09-13T11:08:57.544Z,99.99
2022-09-13T11:09:57.542Z,99.99
2022-09-13T11:10:57.544Z,99.99
2022-09-13T11:11:57.508Z,99.99
2022-09-13T11:12:57.496Z,99.99
2022-09-13T11:13:57.496Z,99.99
2022-09-13T11:14:57.470Z,99.99
2022-09-13T11:15:57.479Z,99.99
2022-09-13T11:16:57.492Z,99.99
2022-09-13T11:17:57.435Z,99.99
2022-09-13T11:18:57.422Z,99.99
2022-09-13T11:19:57.545Z,99.99
2022-09-13T11:20:57.406Z,99.99
2022-09-13T11:21:57.397Z,99.99
2022-09-13T11:22:57.375Z,99.99
2022-09-13T11:23:57.374Z,99.99
2022-09-13T11:24:57.358Z,99.99
2022-09-13T11:25:57.360Z,99.99
2022-09-13T11:26:57.329Z,99.99
2022-09-13T11:27:57.331Z,99.99
2022-09-13T11:28:57.337Z,99.99
2022-09-13T11:29:57.299Z,99.99
2022-09-13T11:30:57.368Z,99.99
2022-09-13T11:31:57.352Z,99.99
2022-09-13T11:32:57.271Z,99.99
2022-09-13T11:33:57.265Z,99.99
2022-09-13T11:34:57.237Z,99.99
2022-09-13T11:35:57.252Z,99.99
2022-09-13T11:36:57.222Z,99.37
2022-09-13T11:37:57.214Z,99.99
2022-09-13T11:38:57.193Z,99.99
2022-09-13T11:39:57.263Z,99.99
2022-09-13T11:40:57.191Z,99.99
2022-09-13T11:41:57.851Z,99.99
2022-09-13T11:42:57.151Z,99.99
2022-09-13T11:43:57.139Z,97.86
2022-09-13T11:44:57.138Z,98.54
2022-09-13T11:45:57.216Z,99.99
2022-09-13T11:46:57.107Z,99.65
2022-09-13T11:47:57.110Z,98.54
2022-09-13T11:48:57.094Z,97.76
2022-09-13T11:49:57.087Z,96.98
2022-09-13T11:50:57.090Z,97.42
2022-09-13T11:51:57.066Z,98.97
2022-09-13T11:52:57.067Z,99.99
2022-09-13T11:53:57.042Z,98.34
2022-09-13T11:54:57.025Z,99.80
2022-09-13T11:55:57.029Z,98.88
2022-09-13T11:56:57.022Z,99.99
2022-09-13T11:57:57.007Z,99.22
2022-09-13T11:58:56.983Z,95.81
2022-09-13T11:59:56.987Z,96.39
2022-09-13T12:00:56.971Z,95.13
2022-09-13T12:01:57.016Z,94.15
2022-09-13T12:02:57.257Z,93.27
2022-09-13T12:03:56.933Z,91.06
2022-09-13T12:05:20.493Z,89.26
2022-09-13T12:05:56.933Z,89.32
2022-09-13T12:06:56.900Z,92.30
2022-09-13T12:07:56.903Z,91.66
2022-09-13T12:08:56.893Z,90.92
2022-09-13T12:09:56.874Z,89.95
2022-09-13T12:10:56.875Z,88.48
2022-09-13T12:11:56.853Z,88.19
2022-09-13T12:12:56.841Z,91.57
2022-09-13T12:13:56.859Z,93.48
2022-09-13T12:14:56.829Z,94.02
2022-09-13T12:15:56.863Z,96.64
2022-09-13T12:16:56.817Z,97.91
2022-09-13T12:17:56.790Z,94.35
2022-09-13T12:18:56.790Z,93.91
2022-09-13T12:19:56.785Z,95.03
2022-09-13T12:20:56.782Z,94.40
2022-09-13T12:21:56.762Z,92.06
2022-09-13T12:22:56.741Z,91.52
2022-09-13T12:23:56.741Z,91.03
2022-09-13T12:24:56.722Z,90.93
2022-09-13T12:25:56.725Z,90.30
2022-09-13T12:26:56.711Z,90.28
2022-09-13T12:27:56.693Z,88.27
2022-09-13T12:28:56.692Z,87.19
2022-09-13T12:29:56.675Z,86.06
2022-09-13T12:30:56.686Z,86.49
2022-09-13T12:31:56.670Z,85.33
2022-09-13T12:32:58.993Z,87.60
2022-09-13T12:33:56.652Z,87.16
2022-09-13T12:34:56.941Z,87.70
2022-09-13T12:35:56.627Z,87.55
2022-09-13T12:36:56.619Z,88.13
2022-09-13T12:37:56.606Z,86.97
2022-09-13T12:38:56.598Z,86.82
2022-09-13T12:39:56.634Z,88.34
2022-09-13T12:40:56.578Z,88.83
2022-09-13T12:41:56.573Z,88.83
2022-09-13T12:42:56.555Z,90.39
2022-09-13T12:43:56.556Z,88.89
2022-09-13T12:44:56.533Z,91.52
2022-09-13T12:45:56.661Z,90.45
2022-09-13T12:46:56.528Z,91.37
2022-09-13T12:47:56.518Z,89.26
2022-09-13T12:48:56.497Z,87.08
2022-09-13T12:49:58.890Z,87.99
2022-09-13T12:50:56.487Z,88.33
2022-09-13T12:51:56.493Z,86.13
2022-09-13T12:52:56.464Z,85.97
2022-09-13T12:53:56.453Z,86.02
2022-09-13T12:54:56.451Z,86.06
2022-09-13T12:56:04.397Z,84.93
2022-09-13T12:56:57.267Z,85.61
2022-09-13T12:57:56.423Z,84.99
2022-09-13T12:58:56.409Z,84.01
2022-09-13T12:59:56.398Z,84.30
2022-09-13T13:00:56.479Z,85.63
2022-09-13T13:01:56.537Z,86.07
2022-09-13T13:02:56.388Z,85.74
2022-09-13T13:03:56.373Z,86.33
2022-09-13T13:04:56.377Z,85.84
2022-09-13T13:05:56.372Z,86.44
2022-09-13T13:06:56.366Z,86.93
2022-09-13T13:07:56.347Z,89.70
2022-09-13T13:08:56.339Z,87.99
2022-09-13T13:09:56.344Z,85.45
2022-09-13T13:10:56.332Z,85.16
2022-09-13T13:11:56.330Z,86.70
2022-09-13T13:12:56.329Z,84.94
2022-09-13T13:13:56.316Z,83.95
2022-09-13T13:14:56.297Z,86.54
2022-09-13T13:15:56.315Z,84.58
2022-09-13T13:16:56.303Z,84.50
2022-09-13T13:17:56.281Z,85.39
2022-09-13T13:18:56.271Z,86.56
2022-09-13T13:19:56.256Z,86.76
2022-09-13T13:20:56.256Z,86.99
2022-09-13T13:21:56.240Z,86.21
2022-09-13T13:22:56.248Z,86.21
2022-09-13T13:23:56.234Z,85.64
2022-09-13T13:24:56.219Z,87.30
2022-09-13T13:27:41.151Z,90.45
2022-09-13T13:28:39.819Z,89.53
2022-09-13T13:29:39.796Z,90.30
2022-09-13T13:30:39.785Z,91.38
2022-09-13T13:31:39.857Z,89.23
2022-09-13T13:32:39.791Z,90.20
2022-09-13T13:33:39.759Z,88.65
2022-09-13T13:34:39.753Z,88.31
2022-09-13T13:35:39.739Z,91.38
2022-09-13T13:36:39.738Z,90.41
2022-09-13T13:37:39.739Z,89.63
2022-09-13T13:38:39.732Z,90.55
2022-09-13T13:39:39.721Z,91.28
2022-09-13T13:40:47.517Z,90.65
2022-09-13T13:41:39.702Z,89.91
2022-09-13T13:42:39.708Z,89.23
2022-09-13T13:43:39.691Z,89.37
2022-09-13T13:44:39.676Z,87.95
2022-09-13T13:45:39.678Z,89.12
2022-09-13T13:46:39.652Z,89.96
2022-09-13T13:47:39.656Z,89.86
2022-09-13T13:48:39.641Z,90.83
2022-09-13T13:49:39.624Z,91.82
2022-09-13T13:50:39.907Z,92.35
2022-09-13T13:51:39.608Z,92.64
2022-09-13T13:52:39.623Z,91.91
2022-09-13T13:53:39.600Z,92.06
2022-09-13T13:54:39.585Z,90.94
2022-09-13T13:55:39.576Z,91.91
2022-09-13T13:56:39.576Z,91.62
2022-09-13T13:57:39.569Z,92.25
2022-09-13T13:58:39.553Z,92.25
2022-09-13T13:59:39.549Z,92.30
2022-09-13T14:00:39.603Z,91.18
2022-09-13T14:01:39.522Z,90.45
2022-09-13T14:02:39.530Z,91.02
2022-09-13T14:03:39.535Z,88.58
2022-09-13T14:04:39.568Z,89.65
2022-09-13T14:05:39.498Z,89.46
2022-09-13T14:06:39.498Z,88.68
2022-09-13T14:07:39.482Z,89.56
2022-09-13T14:08:39.481Z,87.74
2022-09-13T14:09:39.468Z,88.04
2022-09-13T14:10:39.520Z,88.57
2022-09-13T14:11:39.444Z,88.57
2022-09-13T14:12:39.446Z,87.21
2022-09-13T14:13:39.442Z,87.74
2022-09-13T14:14:39.438Z,86.49
2022-09-13T14:15:39.410Z,87.46
2022-09-13T14:16:39.483Z,89.28
2022-09-13T14:17:39.393Z,89.57
2022-09-13T14:18:39.430Z,90.63
2022-09-13T14:19:39.388Z,90.28
2022-09-13T14:20:39.375Z,88.13
2022-09-13T14:21:39.362Z,88.18
2022-09-13T14:22:39.356Z,86.93
2022-09-13T14:23:39.369Z,89.65
2022-09-13T14:24:39.354Z,87.70
2022-09-13T14:25:39.334Z,88.82
2022-09-13T14:26:39.334Z,88.33
2022-09-13T14:27:39.328Z,89.21
2022-09-13T14:31:23.772Z,93.13
2022-09-13T14:32:23.687Z,93.33
2022-09-13T14:33:23.680Z,92.36
2022-09-13T14:34:23.673Z,92.55
2022-09-13T14:35:23.662Z,91.67
2022-09-13T14:36:23.658Z,93.13
2022-09-13T14:37:23.637Z,93.33
2022-09-13T14:38:23.642Z,94.40
2022-09-13T14:39:23.631Z,94.05
2022-09-13T14:40:23.698Z,91.81
2022-09-13T14:41:23.614Z,91.28
